createdAt,value
2018-02-21T00:02:18.872Z,39.67
2018-02-21T00:04:48.655Z,39.28
2018-02-21T00:07:19.236Z,40.22
2018-02-21T00:09:49.305Z,39.80
2018-02-21T00:12:19.017Z,39.10
2018-02-21T00:14:48.741Z,41.28
2018-02-21T00:17:18.477Z,42.20
2018-02-21T00:19:48.360Z,40.95
2018-02-21T00:22:18.103Z,38.65
2018-02-21T00:24:47.824Z,37.95
2018-02-21T00:27:17.585Z,39.20
2018-02-21T00:29:48.026Z,40.35
2018-02-21T00:32:17.891Z,40.80
2018-02-21T00:34:47.538Z,40.80
2018-02-21T00:37:17.231Z,39.40
2018-02-21T00:39:46.953Z,40.60
2018-02-21T00:42:16.678Z,40.50
2018-02-21T00:44:46.400Z,39.83
2018-02-21T00:47:16.409Z,40.35
2018-02-21T00:49:46.120Z,39.15
2018-02-21T00:52:15.880Z,36.97
2018-02-21T00:54:45.583Z,38.58
2018-02-21T00:57:15.372Z,40.40
2018-02-21T00:59:45.896Z,39.63
2018-02-21T01:02:16.431Z,40.25
2018-02-21T01:04:46.147Z,40.25
2018-02-21T01:07:15.908Z,39.78
2018-02-21T01:09:45.638Z,39.30
2018-02-21T01:12:15.492Z,37.65
2018-02-21T01:14:45.181Z,40.80
2018-02-21T01:17:14.871Z,39.40
2018-02-21T01:19:45.387Z,41.03
2018-02-21T01:22:15.122Z,39.88
2018-02-21T01:24:44.863Z,38.03
2018-02-21T01:27:14.777Z,40.40
2018-02-21T01:29:44.489Z,39.85
2018-02-21T01:32:14.248Z,40.30
2018-02-21T01:34:44.036Z,39.47
2018-02-21T01:37:13.821Z,40.70
2018-02-21T01:39:43.577Z,40.20
2018-02-21T01:42:13.344Z,41.75
2018-02-21T01:44:43.082Z,41.83
2018-02-21T01:47:12.793Z,40.80
2018-02-21T01:49:43.050Z,40.47
2018-02-21T01:52:12.840Z,41.60
2018-02-21T01:54:42.652Z,41.08
2018-02-21T01:57:13.104Z,40.15
2018-02-21T01:59:43.520Z,42.40
2018-02-21T02:02:14.037Z,40.78
2018-02-21T02:04:43.974Z,38.63
2018-02-21T02:07:13.688Z,39.30
2018-02-21T02:09:43.693Z,41.00
2018-02-21T02:12:13.493Z,42.47
2018-02-21T02:14:44.017Z,41.22
2018-02-21T02:17:13.738Z,40.45
2018-02-21T02:19:43.600Z,40.97
2018-02-21T02:22:13.490Z,38.95
2018-02-21T02:24:43.546Z,39.95
2018-02-21T02:27:13.276Z,41.33
2018-02-21T02:29:43.067Z,38.92
2018-02-21T02:32:12.880Z,40.35
2018-02-21T02:34:43.057Z,42.65
2018-02-21T02:37:13.672Z,41.72
2018-02-21T02:39:52.836Z,42.65
2018-02-21T02:42:22.568Z,41.92
2018-02-21T02:44:53.044Z,41.90
2018-02-21T02:47:23.621Z,41.47
2018-02-21T02:49:53.308Z,42.55
2018-02-21T02:52:23.880Z,42.90
2018-02-21T02:54:53.562Z,42.08
2018-02-21T02:57:24.012Z,40.75
2018-02-21T02:59:54.504Z,40.83
2018-02-21T03:02:24.242Z,43.85
2018-02-21T03:04:54.032Z,42.67
2018-02-21T03:07:23.847Z,41.65
2018-02-21T03:09:53.588Z,40.25
2018-02-21T03:12:23.444Z,43.83
2018-02-21T03:14:53.135Z,41.88
2018-02-21T03:17:22.964Z,43.38
2018-02-21T03:19:52.710Z,44.83
2018-02-21T03:22:22.372Z,42.58
2018-02-21T03:24:52.096Z,43.38
2018-02-21T03:27:21.852Z,43.47
2018-02-21T03:29:51.665Z,42.28
2018-02-21T03:32:22.098Z,43.67
2018-02-21T03:34:51.816Z,45.08
2018-02-21T03:37:21.484Z,45.10
2018-02-21T03:39:51.681Z,43.55
2018-02-21T03:42:21.536Z,43.38
2018-02-21T03:44:51.248Z,44.97
2018-02-21T03:47:21.077Z,44.78
2018-02-21T03:49:51.047Z,44.78
2018-02-21T03:52:20.870Z,45.15
2018-02-21T03:54:51.197Z,44.50
2018-02-21T03:57:21.246Z,45.97
2018-02-21T03:59:51.943Z,42.90
2018-02-21T04:02:21.689Z,44.15
2018-02-21T04:04:51.483Z,46.50
2018-02-21T04:07:21.192Z,46.53
2018-02-21T04:09:51.085Z,45.03
2018-02-21T04:12:20.860Z,47.80
2018-02-21T04:14:50.586Z,46.37
2018-02-21T04:17:20.232Z,44.85
2018-02-21T04:19:49.992Z,44.92
2018-02-21T04:22:19.967Z,46.53
2018-02-21T04:24:49.704Z,47.05
2018-02-21T04:27:19.520Z,45.92
2018-02-21T04:29:49.277Z,46.78
2018-02-21T04:32:18.972Z,46.15
2018-02-21T04:34:49.105Z,46.35
2018-02-21T04:37:18.840Z,47.55
2018-02-21T04:39:48.699Z,46.28
2018-02-21T04:42:18.412Z,46.95
2018-02-21T04:44:49.031Z,45.65
2018-02-21T04:47:18.782Z,46.35
2018-02-21T04:49:48.503Z,47.35
2018-02-21T04:52:18.240Z,46.85
2018-02-21T04:54:48.105Z,45.75
2018-02-21T04:57:17.938Z,48.33
2018-02-21T04:59:47.756Z,45.75
2018-02-21T05:02:17.465Z,47.47
2018-02-21T05:04:47.252Z,46.35
2018-02-21T05:07:16.955Z,47.55
2018-02-21T05:09:46.697Z,46.22
2018-02-21T05:12:16.878Z,47.42
2018-02-21T05:14:46.703Z,46.08
2018-02-21T05:17:16.417Z,49.13
2018-02-21T05:19:46.423Z,47.20
2018-02-21T05:22:16.908Z,48.72
2018-02-21T05:24:46.651Z,45.78
2018-02-21T05:27:16.417Z,42.58
2018-02-21T05:29:46.902Z,48.95
2018-02-21T05:32:16.676Z,45.88
2018-02-21T05:34:47.632Z,51.15
2018-02-21T05:37:17.353Z,48.72
2018-02-21T05:39:47.122Z,49.78
2018-02-21T05:42:16.868Z,50.28
2018-02-21T05:44:46.760Z,47.67
2018-02-21T05:47:16.534Z,49.47
2018-02-21T05:49:47.093Z,48.67
2018-02-21T05:52:16.819Z,50.75
2018-02-21T05:54:46.540Z,49.08
2018-02-21T05:57:16.431Z,49.40
2018-02-21T05:59:46.230Z,47.55
2018-02-21T06:02:15.977Z,47.08
2018-02-21T06:04:46.541Z,48.45
2018-02-21T06:07:16.313Z,48.97
2018-02-21T06:09:46.033Z,48.90
2018-02-21T06:12:15.737Z,47.90
2018-02-21T06:14:45.570Z,50.40
2018-02-21T06:17:16.056Z,50.30
2018-02-21T06:19:46.384Z,48.40
2018-02-21T06:22:16.090Z,50.95
2018-02-21T06:24:45.860Z,49.83
2018-02-21T06:27:15.584Z,50.60
2018-02-21T06:29:45.449Z,50.08
2018-02-21T06:32:15.136Z,49.67
2018-02-21T06:34:44.872Z,49.63
2018-02-21T06:37:14.616Z,49.53
2018-02-21T06:39:44.400Z,51.97
2018-02-21T06:42:14.320Z,50.08
2018-02-21T06:44:44.152Z,48.50
2018-02-21T06:47:13.849Z,50.30
2018-02-21T06:49:44.376Z,49.75
2018-02-21T06:52:14.941Z,47.72
2018-02-21T06:54:44.803Z,48.28
2018-02-21T06:57:14.630Z,47.53
2018-02-21T06:59:44.391Z,49.28
2018-02-21T07:02:28.374Z,46.72
2018-02-21T07:04:58.064Z,48.63
2018-02-21T07:07:28.564Z,48.45
2018-02-21T07:09:58.455Z,49.13
2018-02-21T07:12:28.266Z,48.75
2018-02-21T07:14:58.806Z,49.45
2018-02-21T07:17:29.380Z,50.47
2018-02-21T07:19:59.087Z,48.28
2018-02-21T07:22:28.905Z,50.35
2018-02-21T07:24:58.714Z,50.00
2018-02-21T07:27:29.268Z,50.95
2018-02-21T07:29:59.134Z,46.88
2018-02-21T07:32:29.039Z,45.58
2018-02-21T07:34:58.762Z,46.50
2018-02-21T07:37:28.632Z,46.42
2018-02-21T07:39:58.354Z,46.40
2018-02-21T07:42:28.150Z,50.38
2018-02-21T07:44:57.976Z,49.03
2018-02-21T07:47:27.708Z,46.35
2018-02-21T07:49:57.769Z,47.22
2018-02-21T07:52:28.971Z,47.45
2018-02-21T07:54:59.595Z,48.08
2018-02-21T07:57:29.444Z,47.55
2018-02-21T07:59:59.388Z,48.63
2018-02-21T08:02:29.128Z,48.35
2018-02-21T08:04:59.700Z,47.67
2018-02-21T08:07:30.183Z,46.08
2018-02-21T08:10:00.062Z,46.25
2018-02-21T08:12:29.782Z,47.25
2018-02-21T08:14:59.508Z,47.80
2018-02-21T08:17:29.392Z,46.37
2018-02-21T08:19:59.161Z,47.67
2018-02-21T08:22:29.044Z,47.03
2018-02-21T08:24:58.788Z,45.88
2018-02-21T08:27:29.437Z,47.28
2018-02-21T08:29:59.299Z,46.78
2018-02-21T08:32:29.171Z,47.85
2018-02-21T08:34:59.720Z,44.88
2018-02-21T08:37:30.429Z,46.37
2018-02-21T08:40:00.154Z,47.00
2018-02-21T08:42:29.858Z,44.55
2018-02-21T08:44:59.568Z,45.25
2018-02-21T08:47:29.501Z,45.45
2018-02-21T08:49:59.289Z,46.33
2018-02-21T08:52:28.994Z,45.40
2018-02-21T08:54:59.702Z,45.95
2018-02-21T08:57:29.605Z,45.45
2018-02-21T08:59:59.317Z,42.95
2018-02-21T09:02:29.039Z,46.40
2018-02-21T09:04:58.917Z,44.90
2018-02-21T09:07:28.874Z,46.25
2018-02-21T09:09:58.769Z,44.20
2018-02-21T09:12:28.424Z,46.00
2018-02-21T09:14:58.702Z,43.40
2018-02-21T09:17:28.397Z,45.10
2018-02-21T09:19:58.160Z,44.90
2018-02-21T09:22:27.880Z,45.70
2018-02-21T09:24:57.711Z,41.05
2018-02-21T09:27:28.213Z,44.85
2018-02-21T09:29:57.989Z,41.88
2018-02-21T09:32:27.702Z,43.38
2018-02-21T09:34:58.484Z,44.13
2018-02-21T09:37:28.341Z,45.63
2018-02-21T09:39:58.046Z,42.67
2018-02-21T09:42:27.716Z,42.20
2018-02-21T09:44:58.163Z,41.58
2018-02-21T09:47:28.621Z,42.92
2018-02-21T09:49:58.279Z,42.20
2018-02-21T09:52:28.004Z,41.35
2018-02-21T09:54:57.861Z,38.20
2018-02-21T09:57:28.288Z,40.67
2018-02-21T09:59:58.077Z,41.13
2018-02-21T10:02:27.810Z,40.22
2018-02-21T10:04:57.823Z,42.90
2018-02-21T10:07:27.730Z,42.53
2018-02-21T10:09:57.447Z,38.42
2018-02-21T10:12:27.126Z,39.90
2018-02-21T10:14:57.580Z,39.97
2018-02-21T10:17:27.292Z,40.33
2018-02-21T10:19:57.068Z,40.83
2018-02-21T10:22:26.753Z,37.78
2018-02-21T10:24:56.541Z,39.03
2018-02-21T10:27:26.209Z,38.20
2018-02-21T10:29:56.866Z,35.00
2018-02-21T10:32:26.535Z,34.40
2018-02-21T10:34:57.012Z,32.83
2018-02-21T10:37:26.704Z,31.30
2018-02-21T10:39:57.182Z,29.63
2018-02-21T10:42:26.928Z,29.25
2018-02-21T10:44:56.601Z,28.33
2018-02-21T10:47:27.240Z,27.67
2018-02-21T10:49:57.455Z,26.62
2018-02-21T10:52:27.177Z,26.92
2018-02-21T10:54:57.039Z,26.08
2018-02-21T10:57:26.738Z,26.48
2018-02-21T10:59:57.198Z,24.23
2018-02-21T11:02:27.033Z,24.58
2018-02-21T11:04:56.934Z,21.92
2018-02-21T11:07:26.641Z,22.73
2018-02-21T11:09:57.121Z,23.95
2018-02-21T11:12:26.836Z,23.58
2018-02-21T11:14:57.328Z,22.08
2018-02-21T11:17:26.963Z,21.87
2018-02-21T11:19:57.630Z,22.40
2018-02-21T11:22:27.348Z,22.45
2018-02-21T11:24:57.186Z,23.30
2018-02-21T11:27:26.861Z,23.77
2018-02-21T11:29:57.330Z,23.90
2018-02-21T11:32:27.130Z,24.25
2018-02-21T11:34:56.877Z,23.98
2018-02-21T11:37:26.627Z,23.73
2018-02-21T11:39:56.428Z,23.83
2018-02-21T11:42:26.146Z,23.50
2018-02-21T11:44:55.914Z,22.80
2018-02-21T11:47:25.748Z,24.45
2018-02-21T11:49:55.553Z,25.17
2018-02-21T11:52:25.368Z,24.05
2018-02-21T11:54:55.123Z,22.92
2018-02-21T11:57:24.952Z,24.15
2018-02-21T11:59:55.531Z,23.87
2018-02-21T12:02:25.333Z,23.52
2018-02-21T12:04:55.879Z,21.52
2018-02-21T12:07:25.674Z,22.35
2018-02-21T12:09:55.465Z,21.55
2018-02-21T12:12:25.562Z,24.73
2018-02-21T12:14:55.344Z,22.73
2018-02-21T12:17:25.257Z,21.60
2018-02-21T12:19:55.110Z,22.83
2018-02-21T12:22:25.660Z,22.37
2018-02-21T12:24:55.393Z,22.05
2018-02-21T12:27:25.372Z,22.05
2018-02-21T12:29:55.083Z,21.92
2018-02-21T12:32:25.025Z,21.95
2018-02-21T12:34:54.771Z,22.08
2018-02-21T12:37:24.476Z,19.15
2018-02-21T12:39:58.479Z,21.08
2018-02-21T12:42:28.544Z,20.92
2018-02-21T12:44:59.065Z,20.17
2018-02-21T12:47:28.928Z,20.40
2018-02-21T12:49:58.736Z,19.33
2018-02-21T12:52:29.260Z,19.23
2018-02-21T12:54:59.064Z,20.45
2018-02-21T12:57:28.850Z,20.83
2018-02-21T12:59:58.609Z,21.23
2018-02-21T13:02:28.413Z,20.90
2018-02-21T13:04:58.161Z,20.65
2018-02-21T13:07:28.098Z,21.77
2018-02-21T13:09:57.836Z,21.95
2018-02-21T13:12:28.391Z,22.65
2018-02-21T13:14:58.120Z,20.83
2018-02-21T13:17:27.873Z,21.90
2018-02-21T13:19:58.398Z,21.15
2018-02-21T13:22:28.141Z,22.67
2018-02-21T13:24:57.840Z,21.23
2018-02-21T13:27:27.646Z,22.40
2018-02-21T13:29:57.392Z,20.17
2018-02-21T13:32:27.140Z,21.10
2018-02-21T13:34:57.044Z,20.45
2018-02-21T13:37:26.831Z,21.45
2018-02-21T13:39:56.563Z,20.77
2018-02-21T13:42:26.401Z,21.65
2018-02-21T13:44:56.217Z,20.95
2018-02-21T13:47:26.042Z,20.95
2018-02-21T13:49:55.883Z,21.35
2018-02-21T13:52:25.623Z,20.55
2018-02-21T13:54:55.374Z,20.45
2018-02-21T13:57:25.950Z,20.70
2018-02-21T13:59:55.705Z,20.12
2018-02-21T14:02:25.584Z,20.30
2018-02-21T14:04:55.333Z,21.33
2018-02-21T14:07:25.287Z,21.70
2018-02-21T14:09:55.013Z,20.77
2018-02-21T14:12:24.760Z,22.10
2018-02-21T14:14:55.306Z,22.15
2018-02-21T14:17:25.828Z,18.98
2018-02-21T14:19:55.737Z,21.50
2018-02-21T14:22:25.450Z,20.73
2018-02-21T14:24:55.256Z,19.33
2018-02-21T14:27:24.988Z,19.92
2018-02-21T14:29:54.751Z,20.20
2018-02-21T14:32:25.234Z,20.25
2018-02-21T14:34:55.055Z,19.77
2018-02-21T14:37:24.809Z,20.08
2018-02-21T14:39:54.588Z,19.85
2018-02-21T14:42:24.371Z,20.55
2018-02-21T14:44:54.140Z,20.33
2018-02-21T14:47:23.922Z,19.92
2018-02-21T14:49:54.597Z,19.35
2018-02-21T14:52:24.707Z,20.62
2018-02-21T14:54:55.238Z,19.75
2018-02-21T14:57:25.089Z,19.30
2018-02-21T14:59:54.874Z,20.60
2018-02-21T15:02:24.786Z,19.25
2018-02-21T15:04:54.561Z,19.37
2018-02-21T15:07:25.238Z,18.62
2018-02-21T15:09:55.050Z,19.08
2018-02-21T15:12:24.952Z,20.25
2018-02-21T15:14:55.329Z,18.15
2018-02-21T15:17:25.109Z,18.70
2018-02-21T15:19:54.866Z,17.62
2018-02-21T15:22:25.040Z,18.48
2018-02-21T15:24:54.863Z,19.23
2018-02-21T15:27:24.576Z,18.65
2018-02-21T15:29:54.349Z,18.92
2018-02-21T15:32:24.253Z,19.10
2018-02-21T15:34:54.863Z,18.65
2018-02-21T15:37:24.605Z,17.77
2018-02-21T15:39:55.167Z,18.48
2018-02-21T15:42:24.989Z,18.67
2018-02-21T15:44:55.053Z,19.45
2018-02-21T15:47:24.880Z,18.45
2018-02-21T15:49:54.625Z,18.45
2018-02-21T15:52:24.355Z,19.83
2018-02-21T15:54:54.244Z,17.15
2018-02-21T15:57:24.026Z,18.73
2018-02-21T15:59:54.645Z,22.17
2018-02-21T16:02:24.367Z,19.23
2018-02-21T16:04:55.288Z,17.37
2018-02-21T16:07:24.971Z,18.48
2018-02-21T16:09:54.910Z,18.75
2018-02-21T16:12:24.720Z,18.52
2018-02-21T16:14:54.528Z,18.55
2018-02-21T16:17:25.095Z,18.27
2018-02-21T16:19:55.341Z,18.70
2018-02-21T16:22:25.101Z,17.25
2018-02-21T16:24:55.089Z,18.62
2018-02-21T16:27:25.017Z,18.33
2018-02-21T16:29:54.812Z,17.90
2018-02-21T16:32:25.880Z,19.55
2018-02-21T16:34:55.706Z,19.48
2018-02-21T16:37:25.455Z,19.00
2018-02-21T16:39:55.501Z,18.42
2018-02-21T16:42:25.534Z,20.73
2018-02-21T16:44:55.582Z,20.70
2018-02-21T16:47:26.102Z,19.48
2018-02-21T16:49:55.931Z,18.95
2018-02-21T16:52:27.134Z,20.75
2018-02-21T16:54:57.107Z,20.12
2018-02-21T16:57:26.977Z,20.33
2018-02-21T16:59:57.467Z,19.77
2018-02-21T17:02:27.266Z,20.33
2018-02-21T17:04:57.488Z,21.05
2018-02-21T17:07:28.124Z,19.12
2018-02-21T17:09:58.036Z,19.70
2018-02-21T17:12:28.625Z,20.00
2018-02-21T17:14:58.384Z,19.95
2018-02-21T17:17:28.931Z,19.23
2018-02-21T17:19:59.491Z,18.70
2018-02-21T17:22:29.271Z,20.67
2018-02-21T17:24:59.184Z,18.98
2018-02-21T17:27:28.978Z,19.70
2018-02-21T17:29:58.796Z,20.05
2018-02-21T17:32:28.520Z,18.58
2018-02-21T17:34:58.312Z,18.08
2018-02-21T17:37:28.194Z,19.52
2018-02-21T17:39:58.045Z,19.95
2018-02-21T17:42:27.995Z,19.15
2018-02-21T17:44:57.716Z,17.83
2018-02-21T17:47:28.342Z,19.27
2018-02-21T17:49:58.166Z,18.02
2018-02-21T17:52:28.951Z,19.62
2018-02-21T17:54:58.804Z,18.65
2018-02-21T17:57:28.693Z,18.50
2018-02-21T17:59:58.474Z,18.80
2018-02-21T18:02:28.354Z,19.75
2018-02-21T18:04:58.459Z,17.85
2018-02-21T18:07:28.319Z,18.05
2018-02-21T18:09:58.549Z,17.42
2018-02-21T18:12:29.174Z,18.35
2018-02-21T18:14:59.741Z,17.48
2018-02-21T18:17:29.813Z,22.70
2018-02-21T18:20:00.379Z,18.85
2018-02-21T18:22:30.559Z,17.70
2018-02-21T18:25:00.274Z,17.35
2018-02-21T18:27:30.727Z,18.08
2018-02-21T18:30:00.520Z,19.87
2018-02-21T18:32:30.741Z,18.45
2018-02-21T18:35:00.571Z,18.55
2018-02-21T18:37:30.786Z,18.73
2018-02-21T18:40:00.584Z,19.10
2018-02-21T18:42:31.386Z,19.65
2018-02-21T18:45:01.306Z,19.15
2018-02-21T18:47:31.521Z,20.23
2018-02-21T18:50:01.309Z,20.55
2018-02-21T18:52:32.957Z,19.90
2018-02-21T18:55:02.740Z,19.77
2018-02-21T18:57:32.965Z,19.50
2018-02-21T19:00:03.473Z,19.60
2018-02-21T19:02:34.067Z,19.20
2018-02-21T19:05:03.945Z,20.00
2018-02-21T19:07:34.878Z,21.10
2018-02-21T19:10:04.853Z,20.30
2018-02-21T19:12:34.861Z,21.15
2018-02-21T19:15:04.664Z,20.48
2018-02-21T19:17:34.468Z,20.00
2018-02-21T19:20:04.497Z,21.25
2018-02-21T19:22:34.239Z,20.50
2018-02-21T19:25:04.341Z,21.10
2018-02-21T19:27:34.305Z,21.35
2018-02-21T19:30:05.809Z,20.67
2018-02-21T19:32:35.643Z,20.05
2018-02-21T19:35:06.319Z,20.60
2018-02-21T19:37:36.197Z,19.00
2018-02-21T19:40:06.179Z,20.42
2018-02-21T19:42:36.174Z,22.08
2018-02-21T19:45:06.133Z,20.88
2018-02-21T19:47:35.938Z,19.50
2018-02-21T19:50:06.371Z,19.55
2018-02-21T19:52:36.952Z,21.08
2018-02-21T19:55:07.580Z,22.02
2018-02-21T19:57:37.298Z,20.98
2018-02-21T20:00:07.661Z,21.77
2018-02-21T20:02:38.844Z,20.55
2018-02-21T20:05:08.713Z,22.05
2018-02-21T20:07:38.816Z,21.27
2018-02-21T20:10:08.648Z,21.42
2018-02-21T20:12:38.746Z,19.70
2018-02-21T20:15:08.561Z,19.20
2018-02-21T20:17:38.538Z,20.73
2018-02-21T20:20:08.353Z,21.15
2018-02-21T20:22:38.257Z,20.88
2018-02-21T20:25:08.109Z,20.83
2018-02-21T20:27:38.233Z,21.00
2018-02-21T20:30:08.002Z,21.17
2018-02-21T20:32:38.527Z,19.73
2018-02-21T20:35:08.629Z,20.52
2018-02-21T20:37:38.446Z,21.10
2018-02-21T20:40:08.649Z,19.37
2018-02-21T20:42:38.455Z,19.40
2018-02-21T20:45:09.088Z,21.02
2018-02-21T20:47:38.984Z,20.02
2018-02-21T20:50:08.755Z,20.70
2018-02-21T20:52:39.086Z,19.73
2018-02-21T20:55:09.016Z,21.00
2018-02-21T20:57:45.637Z,19.12
2018-02-21T21:00:15.525Z,19.33
2018-02-21T21:02:45.401Z,19.20
2018-02-21T21:05:16.069Z,20.40
2018-02-21T21:07:45.951Z,21.10
2018-02-21T21:10:16.352Z,19.52
2018-02-21T21:12:46.438Z,20.90
2018-02-21T21:15:16.217Z,19.40
2018-02-21T21:17:46.008Z,19.90
2018-02-21T21:20:16.573Z,20.95
2018-02-21T21:22:46.316Z,20.65
2018-02-21T21:25:16.197Z,21.02
2018-02-21T21:27:46.721Z,21.42
2018-02-21T21:30:16.568Z,20.55
2018-02-21T21:32:47.057Z,20.55
2018-02-21T21:35:16.892Z,21.20
2018-02-21T21:37:46.670Z,20.23
2018-02-21T21:40:16.446Z,20.25
2018-02-21T21:42:46.210Z,21.42
2018-02-21T21:45:15.972Z,20.12
2018-02-21T21:47:45.674Z,19.85
2018-02-21T21:50:15.473Z,21.40
2018-02-21T21:52:45.282Z,21.08
2018-02-21T21:55:15.927Z,21.08
2018-02-21T21:57:45.856Z,20.35
2018-02-21T22:00:16.562Z,20.45
2018-02-21T22:02:46.357Z,21.73
2018-02-21T22:05:16.834Z,20.35
2018-02-21T22:07:46.575Z,20.30
2018-02-21T22:10:16.368Z,21.05
2018-02-21T22:12:46.271Z,21.17
2018-02-21T22:15:16.046Z,19.60
2018-02-21T22:17:45.795Z,20.80
2018-02-21T22:20:15.839Z,20.20
2018-02-21T22:22:45.568Z,21.75
2018-02-21T22:25:16.102Z,21.33
2018-02-21T22:27:45.871Z,21.95
2018-02-21T22:30:15.643Z,21.95
2018-02-21T22:32:45.312Z,22.05
2018-02-21T22:35:15.024Z,22.17
2018-02-21T22:37:44.748Z,22.52
2018-02-21T22:40:14.524Z,21.95
2018-02-21T22:42:44.774Z,21.85
2018-02-21T22:45:14.486Z,19.67
2018-02-21T22:47:44.228Z,20.48
2018-02-21T22:50:14.035Z,20.88
2018-02-21T22:52:43.787Z,20.35
2018-02-21T22:55:13.480Z,20.70
2018-02-21T22:57:43.266Z,20.42
2018-02-21T23:00:14.003Z,18.83
2018-02-21T23:02:42.676Z,21.55
2018-02-21T23:05:12.777Z,20.00
2018-02-21T23:07:42.486Z,20.45
2018-02-21T23:10:12.315Z,18.40
2018-02-21T23:12:42.220Z,20.85
2018-02-21T23:15:11.920Z,19.77
2018-02-21T23:17:43.149Z,20.75
2018-02-21T23:20:12.868Z,21.02
2018-02-21T23:22:42.635Z,20.70
2018-02-21T23:25:13.132Z,21.30
2018-02-21T23:27:43.020Z,21.08
2018-02-21T23:30:12.713Z,20.90
2018-02-21T23:32:43.410Z,20.77
2018-02-21T23:35:13.126Z,21.80
2018-02-21T23:37:42.866Z,20.80
2018-02-21T23:40:12.692Z,22.02
2018-02-21T23:42:42.468Z,20.65
2018-02-21T23:45:12.293Z,20.45
2018-02-21T23:47:42.006Z,22.15
2018-02-21T23:50:11.807Z,20.67
2018-02-21T23:52:42.348Z,20.08
2018-02-21T23:55:12.804Z,20.15
2018-02-21T23:57:43.318Z,20.50
